Time;durP1;ratioP1;P1;durP2;ratioP2;P2;SDS_P1;SDS_P2;PMS_P1;PMS_P2;Temp;Humidity;BMP_temperature;BMP_pressure;BME280_temperature;BME280_humidity;BME280_pressure;Samples;Min_cycle;Max_cycle;Signal;HPM_P1;HPM_P2
2021/06/06 00:01:31;;;;;;;10.43;5.92;;;;;;;13.04;100.00;99223.73;1699492;84;20884;-69
2021/06/06 00:04:01;;;;;;;7.67;5.65;;;;;;;13.09;100.00;99224.25;1699251;84;21156;-69
2021/06/06 00:06:32;;;;;;;15.72;5.97;;;;;;;13.09;100.00;99215.61;1723094;83;20904;-69
2021/06/06 00:09:02;;;;;;;10.25;5.97;;;;;;;13.06;100.00;99218.88;1699222;84;21474;-69
2021/06/06 00:11:35;;;;;;;11.63;6.22;;;;;;;13.01;100.00;99216.75;1699207;84;20901;-68
2021/06/06 00:14:04;;;;;;;8.85;5.28;;;;;;;12.93;100.00;99212.73;1699160;84;20946;-69
2021/06/06 00:16:43;;;;;;;27.55;6.37;;;;;;;12.83;100.00;99210.09;1699144;83;21458;-69
2021/06/06 00:19:11;;;;;;;13.85;6.00;;;;;;;12.72;100.00;99208.55;1699210;84;20927;-69
2021/06/06 00:21:41;;;;;;;10.00;5.65;;;;;;;12.60;100.00;99204.81;1699240;84;20935;-68
2021/06/06 00:24:12;;;;;;;9.80;5.92;;;;;;;12.47;100.00;99200.00;1699270;84;21451;-69
2021/06/06 00:26:39;;;;;;;7.80;5.97;;;;;;;12.36;100.00;99199.24;1699168;84;20927;-69
2021/06/06 00:29:09;;;;;;;8.60;5.75;;;;;;;12.28;100.00;99198.47;1699127;84;22147;-68
2021/06/06 00:31:36;;;;;;;19.90;6.22;;;;;;;12.23;100.00;99193.36;1699258;84;20939;-69
2021/06/06 00:34:06;;;;;;;12.90;6.15;;;;;;;12.24;100.00;99188.78;1699176;84;20990;-68
2021/06/06 00:36:34;;;;;;;10.55;5.45;;;;;;;12.22;100.00;99189.06;1699153;84;20979;-68
2021/06/06 00:39:01;;;;;;;12.33;6.80;;;;;;;12.17;100.00;99186.91;1699454;84;20946;-68
2021/06/06 00:41:30;;;;;;;8.58;6.47;;;;;;;12.07;100.00;99186.94;1699349;84;21157;-69
2021/06/06 00:43:59;;;;;;;10.55;6.55;;;;;;;11.90;100.00;99182.66;1699118;83;21027;-68
2021/06/06 00:46:30;;;;;;;17.40;7.33;;;;;;;11.76;100.00;99182.94;1722992;83;20927;-68
2021/06/06 00:48:58;;;;;;;13.68;5.80;;;;;;;11.69;100.00;99183.74;1699285;84;20927;-68
2021/06/06 00:51:55;;;;;;;9.68;6.40;;;;;;;11.61;100.00;99179.69;1699008;84;21002;-68
2021/06/06 00:54:28;;;;;;;7.15;5.58;;;;;;;11.55;100.00;99174.86;1679593;84;21109;-69
2021/06/06 00:57:04;;;;;;;14.30;6.15;;;;;;;11.52;100.00;99170.58;1679760;85;20868;-69
2021/06/06 00:59:41;;;;;;;11.15;6.70;;;;;;;11.50;100.00;99172.72;1677012;85;20963;-69
2021/06/06 01:02:10;;;;;;;13.25;7.40;;;;;;;11.43;100.00;99179.70;1679719;85;20880;-69
2021/06/06 01:04:37;;;;;;;8.75;6.87;;;;;;;11.34;100.00;99176.75;1679824;85;21464;-68
2021/06/06 01:07:06;;;;;;;22.22;7.37;;;;;;;11.28;100.00;99178.35;1679765;85;20955;-69
2021/06/06 01:09:34;;;;;;;115.00;13.00;;;;;;;11.22;100.00;99180.75;1679958;85;20947;-68
2021/06/06 01:12:21;;;;;;;257.98;27.02;;;;;;;11.19;100.00;99175.91;1679770;85;20915;-68
2021/06/06 04:15:32;;;;;;;21.65;8.15;;;;;;;13.12;100.00;99172.48;1705601;84;21168;-69
2021/06/06 04:18:12;;;;;;;17.50;9.13;;;;;;;13.21;100.00;99177.55;1705858;84;20857;-69
2021/06/06 04:20:42;;;;;;;16.65;8.95;;;;;;;13.27;100.00;99181.03;1705653;84;20944;-71
2021/06/06 04:23:10;;;;;;;21.17;8.83;;;;;;;13.31;100.00;99186.14;1705620;83;20896;-69
2021/06/06 04:25:39;;;;;;;16.87;8.53;;;;;;;13.39;100.00;99183.38;1705773;84;20939;-69
2021/06/06 04:28:10;;;;;;;20.90;9.73;;;;;;;13.48;100.00;99183.05;1705879;84;22175;-71
2021/06/06 04:30:38;;;;;;;19.25;11.95;;;;;;;13.58;100.00;99184.86;1705676;83;20979;-70
2021/06/06 04:33:08;;;;;;;26.90;12.73;;;;;;;13.65;100.00;99191.53;1705732;84;20979;-68
2021/06/06 04:35:42;;;;;;;26.87;12.53;;;;;;;13.73;100.00;99191.47;1705988;83;21510;-71
2021/06/06 04:38:13;;;;;;;20.32;11.30;;;;;;;13.81;100.00;99196.79;1705765;83;20972;-68
2021/06/06 04:40:42;;;;;;;24.23;12.73;;;;;;;13.86;100.00;99198.89;1706068;83;21099;-71
2021/06/06 04:43:12;;;;;;;24.70;13.48;;;;;;;13.90;100.00;99192.39;1705829;83;21415;-70
2021/06/06 04:45:41;;;;;;;31.80;15.75;;;;;;;13.96;100.00;99189.89;1705711;83;20885;-70
2021/06/06 04:48:19;;;;;;;23.95;14.13;;;;;;;14.07;100.00;99194.11;1705587;83;20940;-69
2021/06/06 04:50:50;;;;;;;25.45;12.65;;;;;;;14.15;100.00;99193.48;1705752;83;21473;-72
2021/06/06 04:53:20;;;;;;;19.87;11.33;;;;;;;14.29;100.00;99188.21;1686477;84;21399;-70
2021/06/06 04:55:47;;;;;;;24.05;10.13;;;;;;;14.41;100.00;99192.42;1705551;84;20982;-71
2021/06/06 04:58:19;;;;;;;16.80;9.25;;;;;;;14.51;100.00;99191.74;1705325;83;20932;-71
2021/06/06 05:00:48;;;;;;;13.68;7.30;;;;;;;14.64;100.00;99196.22;1705610;83;20980;-69
2021/06/06 05:03:20;;;;;;;25.30;8.38;;;;;;;14.73;100.00;99206.64;1705643;84;20987;-71
2021/06/06 05:05:49;;;;;;;17.00;7.28;;;;;;;14.83;100.00;99209.77;1705562;84;21226;-69
2021/06/06 05:08:21;;;;;;;33.08;8.53;;;;;;;14.99;100.00;99207.09;1705298;82;20884;-71
2021/06/06 05:10:49;;;;;;;22.02;9.75;;;;;;;15.13;100.00;99211.23;1685413;84;20983;-71
2021/06/06 05:13:18;;;;;;;11.85;8.48;;;;;;;15.31;100.00;99205.04;1704386;83;20932;-70
2021/06/06 05:15:51;;;;;;;12.10;6.80;;;;;;;15.49;100.00;99208.81;1683556;83;21483;-70
2021/06/06 05:18:22;;;;;;;11.60;6.45;;;;;;;15.60;100.00;99210.80;1682979;85;21150;-69
2021/06/06 05:20:51;;;;;;;21.73;6.80;;;;;;;15.64;100.00;99203.70;1682982;84;20921;-70
2021/06/06 05:23:22;;;;;;;12.53;6.97;;;;;;;15.66;100.00;99209.63;1682818;84;20849;-68
2021/06/06 05:25:50;;;;;;;20.32;7.95;;;;;;;15.75;100.00;99202.48;1683008;85;20893;-70
2021/06/06 05:28:22;;;;;;;26.48;8.13;;;;;;;15.91;100.00;99198.16;1682877;85;20980;-69
2021/06/06 05:30:52;;;;;;;13.90;7.20;;;;;;;16.03;100.00;99195.77;1707957;84;21837;-69
2021/06/06 05:33:20;;;;;;;14.53;8.03;;;;;;;16.14;100.00;99205.30;1674614;85;21460;-70
2021/06/06 05:35:49;;;;;;;14.78;7.87;;;;;;;16.10;100.00;99206.22;1657780;86;20963;-67
2021/06/06 05:38:18;;;;;;;23.85;11.00;;;;;;;16.06;100.00;99203.29;1656855;86;20968;-70
2021/06/06 05:40:47;;;;;;;27.65;10.85;;;;;;;15.88;100.00;99203.61;1709089;84;21013;-70
2021/06/06 05:43:18;;;;;;;28.25;12.35;;;;;;;15.83;100.00;99201.80;1709551;84;21144;-70
2021/06/06 05:45:49;;;;;;;24.80;11.28;;;;;;;15.82;100.00;99206.14;1707162;84;21027;-68
2021/06/06 05:48:16;;;;;;;22.65;11.53;;;;;;;15.88;100.00;99207.67;1706715;84;21526;-68
2021/06/06 05:50:47;;;;;;;21.02;9.53;;;;;;;15.83;100.00;99203.70;1706887;84;20996;-68
2021/06/06 05:53:19;;;;;;;29.82;11.00;;;;;;;15.75;100.00;99203.84;1705631;84;21056;-71
2021/06/06 05:55:46;;;;;;;28.12;10.25;;;;;;;15.74;100.00;99202.77;1706804;84;21157;-69
2021/06/06 05:58:14;;;;;;;15.48;9.45;;;;;;;15.75;100.00;99198.95;1706764;84;21487;-69
2021/06/06 06:00:42;;;;;;;;;;;;;;;15.75;100.00;99202.48;1674565;84;21456;-71
2021/06/06 06:03:10;;;;;;;25.85;9.35;;;;;;;15.69;100.00;99203.63;1706835;84;20226;-70
2021/06/06 06:05:37;;;;;;;22.77;10.48;;;;;;;15.67;100.00;99205.81;1672522;85;21024;-68
2021/06/06 06:08:23;;;;;;;17.95;9.28;;;;;;;15.76;100.00;99204.08;1663580;85;20988;-70
2021/06/06 06:10:52;;;;;;;19.52;10.38;;;;;;;15.85;100.00;99210.98;1682869;85;20889;-71
2021/06/06 06:13:22;;;;;;;17.23;9.50;;;;;;;15.82;100.00;99206.94;1682938;84;20977;-69
2021/06/06 06:15:50;;;;;;;15.85;7.83;;;;;;;15.98;100.00;99214.25;1703095;83;20912;-70
2021/06/06 06:18:20;;;;;;;29.18;8.28;;;;;;;16.13;100.00;99220.50;1705496;83;21066;-70
2021/06/06 06:20:49;;;;;;;39.78;10.58;;;;;;;16.22;100.00;99223.58;1705643;84;21824;-71
2021/06/06 06:23:18;;;;;;;21.52;7.80;;;;;;;16.31;100.00;99219.61;1705447;83;20991;-71
2021/06/06 06:25:49;;;;;;;18.50;7.65;;;;;;;16.29;100.00;99210.97;1705516;83;20939;-69
2021/06/06 06:28:21;;;;;;;11.97;7.10;;;;;;;16.24;100.00;99222.73;1705498;84;21018;-68
2021/06/06 06:30:50;;;;;;;20.23;8.63;;;;;;;16.28;100.00;99226.42;1701780;84;20920;-69
2021/06/06 06:33:20;;;;;;;16.87;7.67;;;;;;;16.45;100.00;99225.84;1704565;84;21150;-68
2021/06/06 06:35:48;;;;;;;19.57;7.28;;;;;;;16.64;100.00;99222.24;1705349;84;20931;-69
2021/06/06 06:38:16;;;;;;;44.90;8.35;;;;;;;16.75;100.00;99216.05;1705033;84;21027;-69
2021/06/06 06:40:44;;;;;;;16.62;7.53;;;;;;;16.90;100.00;99222.53;1705580;83;21010;-67
2021/06/06 06:43:11;;;;;;;12.05;6.62;;;;;;;17.03;100.00;99225.00;1705465;84;20856;-69
2021/06/06 06:45:42;;;;;;;12.88;6.53;;;;;;;17.04;100.00;99230.66;1705630;84;22218;-68
2021/06/06 06:48:24;;;;;;;10.63;7.25;;;;;;;17.03;100.00;99234.48;1705307;83;20920;-67
2021/06/06 06:50:52;;;;;;;17.70;8.48;;;;;;;17.01;100.00;99233.98;1705363;83;20935;-67
2021/06/06 06:53:19;;;;;;;19.92;10.35;;;;;;;16.78;100.00;99234.41;1705406;83;20920;-70
2021/06/06 06:55:46;;;;;;;20.60;11.63;;;;;;;16.57;100.00;99216.42;1703164;82;21074;-67
2021/06/06 06:58:13;;;;;;;26.27;10.98;;;;;;;16.42;100.00;99233.78;1690729;84;21160;-68
2021/06/06 07:00:49;;;;;;;33.48;12.07;;;;;;;16.35;100.00;99234.17;1670191;85;20982;-67
2021/06/06 07:03:25;;;;;;;36.58;14.55;;;;;;;16.41;100.00;99224.03;1681296;84;21574;-68
2021/06/06 07:05:59;;;;;;;33.38;12.37;;;;;;;16.40;100.00;99228.66;1696405;83;20978;-69
2021/06/06 07:08:28;;;;;;;;;;;;;;;16.46;100.00;99223.41;1679305;84;20999;-69
2021/06/06 07:10:57;;;;;;;15.80;9.03;;;;;;;16.56;100.00;99221.58;1692067;82;20084;-69
2021/06/06 07:13:27;;;;;;;31.95;15.10;;;;;;;16.59;100.00;99217.73;1705051;83;21386;-69
2021/06/06 07:15:56;;;;;;;39.90;17.55;;;;;;;16.62;100.00;99219.83;1670952;85;21081;-68
2021/06/06 07:18:22;;;;;;;41.15;17.32;;;;;;;16.67;100.00;99213.50;1695984;83;20971;-68
2021/06/06 07:20:57;;;;;;;32.53;17.90;;;;;;;16.77;100.00;99211.14;1670335;85;20940;-69
2021/06/06 07:23:29;;;;;;;31.23;15.45;;;;;;;16.76;100.00;99210.34;1688282;84;21779;-68
2021/06/06 07:26:01;;;;;;;33.70;12.63;;;;;;;16.59;100.00;99204.18;1692143;84;21022;-70
2021/06/06 07:28:29;;;;;;;12.00;8.10;;;;;;;16.61;100.00;99201.98;1690640;84;21014;-67
2021/06/06 07:31:00;;;;;;;18.40;8.90;;;;;;;16.65;100.00;99203.52;1688449;84;21014;-68
2021/06/06 07:33:33;;;;;;;17.32;8.13;;;;;;;16.62;100.00;99213.61;1691280;83;21099;-67
2021/06/06 07:36:14;;;;;;;13.22;8.23;;;;;;;16.66;100.00;99218.69;1693043;83;20895;-68
2021/06/06 07:38:41;;;;;;;15.88;7.75;;;;;;;16.77;100.00;99218.71;1688858;84;20880;-67
2021/06/06 07:41:08;;;;;;;24.57;8.33;;;;;;;16.98;100.00;99224.55;1690314;84;20943;-69
2021/06/06 07:43:39;;;;;;;15.83;8.78;;;;;;;17.04;100.00;99217.09;1690968;84;21035;-69
2021/06/06 07:46:07;;;;;;;;;;;;;;;17.07;100.00;99217.84;1666925;83;21109;-67
2021/06/06 07:48:34;;;;;;;10.98;7.87;;;;;;;17.07;100.00;99212.41;1670618;85;21878;-68
2021/06/06 07:51:03;;;;;;;21.75;9.05;;;;;;;17.11;100.00;99211.50;1694959;83;20903;-67
2021/06/06 07:53:31;;;;;;;22.35;8.83;;;;;;;17.24;100.00;99210.41;1688158;83;21013;-68
2021/06/06 07:55:59;;;;;;;20.10;9.30;;;;;;;17.30;100.00;99212.71;1691197;84;21679;-67
2021/06/06 07:58:34;;;;;;;21.07;8.85;;;;;;;17.41;100.00;99215.19;1691086;84;21031;-69
2021/06/06 08:01:01;;;;;;;24.82;8.90;;;;;;;17.50;100.00;99214.70;1685034;83;21247;-68
2021/06/06 08:03:29;;;;;;;20.00;9.40;;;;;;;17.49;100.00;99213.08;1676544;84;21047;-67
2021/06/06 08:05:58;;;;;;;25.97;9.85;;;;;;;17.42;100.00;99206.75;1676854;85;20951;-67
2021/06/06 08:08:26;;;;;;;37.23;9.68;;;;;;;17.42;100.00;99204.56;1677090;85;21093;-66
2021/06/06 08:10:57;;;;;;;19.62;8.65;;;;;;;17.42;100.00;99204.56;1676694;85;20994;-68
2021/06/06 08:13:26;;;;;;;18.77;8.30;;;;;;;17.53;100.00;99207.30;1676297;85;21073;-69
2021/06/06 08:15:55;;;;;;;23.85;8.13;;;;;;;17.58;100.00;99213.39;1634998;85;20976;-68
2021/06/06 08:18:29;;;;;;;20.85;7.65;;;;;;;17.67;100.00;99212.11;1648425;86;21062;-70
2021/06/06 08:21:05;;;;;;;12.47;7.72;;;;;;;17.85;100.00;99213.05;1654980;85;21011;-67
2021/06/06 08:23:36;;;;;;;19.57;7.20;;;;;;;17.78;100.00;99217.55;1663696;84;21174;-68
2021/06/06 08:26:06;;;;;;;23.15;7.62;;;;;;;17.87;100.00;99221.69;1665415;85;21227;-69
2021/06/06 08:28:33;;;;;;;14.38;7.28;;;;;;;18.01;100.00;99216.19;1662606;85;21016;-68
2021/06/06 08:31:15;;;;;;;13.85;6.92;;;;;;;18.11;100.00;99219.98;1649868;86;20956;-69
2021/06/06 08:33:42;;;;;;;16.87;6.75;;;;;;;18.13;100.00;99217.77;1649992;87;21047;-68
2021/06/06 08:36:28;;;;;;;13.00;6.92;;;;;;;18.30;100.00;99222.48;1650049;86;20972;-69
2021/06/06 08:38:58;;;;;;;19.95;7.15;;;;;;;18.54;100.00;99222.08;1607744;87;21099;-70
2021/06/06 08:41:46;;;;;;;12.65;7.35;;;;;;;18.70;100.00;99218.95;1579044;88;21095;-68
2021/06/06 08:44:35;;;;;;;16.27;7.55;;;;;;;18.57;100.00;99225.55;1605977;88;21130;-68
2021/06/06 08:47:16;;;;;;;22.48;7.70;;;;;;;18.48;100.00;99227.98;1580098;90;21478;-65
2021/06/06 08:49:48;;;;;;;18.27;6.67;;;;;;;18.43;100.00;99234.36;1580707;89;21090;-69
2021/06/06 08:52:45;;;;;;;13.60;6.97;;;;;;;18.40;100.00;99237.71;1580382;90;21913;-67
2021/06/06 08:55:56;;;;;;;12.35;6.30;;;;;;;18.34;100.00;99232.16;1606089;89;21875;-70
2021/06/06 08:58:50;;;;;;;12.03;6.60;;;;;;;18.35;100.00;99236.49;1580127;89;21239;-68
2021/06/06 09:01:32;;;;;;;12.28;6.08;;;;;;;18.29;100.00;99234.45;1606672;89;21106;-69
2021/06/06 09:04:04;;;;;;;10.35;6.35;;;;;;;18.32;100.00;99237.89;1579949;90;21113;-68
2021/06/06 09:07:02;;;;;;;10.63;5.55;;;;;;;18.35;100.00;99235.93;1560289;90;22427;-69
2021/06/06 09:09:38;;;;;;;15.95;6.33;;;;;;;18.38;100.00;99238.58;1580208;90;21065;-66
2021/06/06 09:12:09;;;;;;;9.23;5.22;;;;;;;18.39;100.00;99235.53;1577966;89;21133;-68
2021/06/06 09:14:36;;;;;;;9.13;4.85;;;;;;;18.42;100.00;99232.20;1579688;90;21114;-71
2021/06/06 09:17:10;;;;;;;11.43;5.28;;;;;;;18.38;100.00;99234.50;1614648;86;21609;-68
2021/06/06 09:19:50;;;;;;;9.78;5.65;;;;;;;18.23;100.00;99233.53;1606503;88;21433;-69
2021/06/06 09:22:41;;;;;;;9.00;5.47;;;;;;;18.23;100.00;99228.09;1649327;85;21082;-70
2021/06/06 09:25:28;;;;;;;10.35;5.53;;;;;;;18.29;100.00;99224.14;1654308;86;21017;-69
2021/06/06 09:28:15;;;;;;;13.85;6.30;;;;;;;18.23;100.00;99228.09;1654497;86;21577;-68
2021/06/06 09:31:10;;;;;;;8.55;6.10;;;;;;;18.23;100.00;99219.95;1649707;86;21526;-67
2021/06/06 09:33:56;;;;;;;6.97;6.28;;;;;;;18.15;100.00;99217.44;1657652;86;21176;-69
2021/06/06 09:36:42;;;;;;;8.78;5.83;;;;;;;18.23;100.00;99217.23;1654537;86;21024;-68
2021/06/06 09:39:21;;;;;;;8.70;5.90;;;;;;;18.30;100.00;99213.51;1651744;86;21551;-68
2021/06/06 09:41:54;;;;;;;11.55;6.90;;;;;;;18.29;100.00;99214.08;1654049;86;21737;-71
2021/06/06 09:44:30;;;;;;;19.50;6.10;;;;;;;18.31;100.00;99215.92;1654079;86;21167;-69
2021/06/06 09:47:11;;;;;;;10.25;6.20;;;;;;;18.30;100.00;99213.51;1654194;86;21244;-70
2021/06/06 09:49:48;;;;;;;9.03;5.90;;;;;;;18.27;100.00;99213.58;1653267;86;21740;-69
2021/06/06 09:52:29;;;;;;;9.73;6.03;;;;;;;18.30;100.00;99216.23;1662525;85;21066;-70
2021/06/06 09:55:03;;;;;;;10.98;5.90;;;;;;;18.36;100.00;99212.27;1684842;85;21583;-71
2021/06/06 09:57:35;;;;;;;13.10;6.12;;;;;;;18.47;100.00;99209.53;1682802;84;21056;-71
2021/06/06 10:00:35;;;;;;;10.30;6.22;;;;;;;18.57;100.00;99209.23;1686598;85;21803;-71
2021/06/06 10:03:06;;;;;;;12.15;5.78;;;;;;;18.77;100.00;99213.88;1681814;84;21508;-68
2021/06/06 10:05:40;;;;;;;7.85;5.10;;;;;;;19.03;100.00;99212.02;1682531;84;21716;-71
2021/06/06 10:08:26;;;;;;;8.80;5.10;;;;;;;19.29;100.00;99207.14;1669740;85;21543;-72
2021/06/06 10:11:15;;;;;;;9.13;5.22;;;;;;;19.39;100.00;99205.45;1681212;84;20997;-66
2021/06/06 10:13:45;;;;;;;;;;;;;;;19.68;100.00;99209.47;1671719;85;21147;-69
2021/06/06 10:16:17;;;;;;;6.30;4.62;;;;;;;19.84;100.00;99210.58;1682148;84;20224;-72
2021/06/06 10:18:57;;;;;;;7.20;4.05;;;;;;;20.07;100.00;99204.91;1688868;83;21003;-67
2021/06/06 10:21:27;;;;;;;10.15;4.20;;;;;;;20.26;95.38;99205.86;1665675;85;21063;-70
2021/06/06 10:23:59;;;;;;;5.83;3.95;;;;;;;20.40;89.36;99202.36;1655895;86;21095;-68
2021/06/06 10:26:46;;;;;;;3.72;3.12;;;;;;;20.51;89.23;99202.81;1655752;86;21187;-71
2021/06/06 10:29:24;;;;;;;10.00;4.33;;;;;;;20.94;83.63;99202.56;1655613;86;21087;-71
2021/06/06 10:31:57;;;;;;;6.03;3.45;;;;;;;21.03;83.57;99202.52;1646499;86;21597;-70
2021/06/06 10:34:49;;;;;;;8.78;3.70;;;;;;;21.31;82.12;99197.89;1655479;86;22206;-67
2021/06/06 10:37:17;;;;;;;8.85;3.37;;;;;;;21.66;81.64;99199.00;1656779;86;21577;-67
2021/06/06 10:39:59;;;;;;;9.63;3.40;;;;;;;21.81;79.56;99205.19;1657128;86;21743;-73
2021/06/06 10:42:31;;;;;;;11.33;3.60;;;;;;;22.29;78.88;99203.69;1656332;86;21047;-67
2021/06/06 10:45:16;;;;;;;8.78;3.85;;;;;;;22.63;76.41;99206.55;1684283;85;21491;-68
2021/06/06 10:48:01;;;;;;;7.65;3.22;;;;;;;22.84;74.06;99211.11;1658269;85;21502;-67
2021/06/06 10:50:41;;;;;;;5.53;3.30;;;;;;;23.14;67.75;99206.75;1701197;84;21067;-67
2021/06/06 10:53:21;;;;;;;11.65;3.25;;;;;;;22.98;68.21;99203.92;1677495;85;21484;-69
2021/06/06 10:56:01;;;;;;;4.72;3.08;;;;;;;23.27;67.23;99197.35;1687337;84;20987;-69
2021/06/06 10:58:39;;;;;;;4.03;2.70;;;;;;;23.46;62.63;99195.35;1687465;85;20996;-71
2021/06/06 11:01:29;;;;;;;8.28;2.95;;;;;;;23.54;60.62;99194.39;1677462;85;21052;-71
2021/06/06 11:04:20;;;;;;;5.87;3.12;;;;;;;23.34;60.55;99187.97;1658813;86;21066;-69
2021/06/06 11:07:02;;;;;;;11.50;3.20;;;;;;;23.15;57.38;99183.70;1687137;84;20999;-70
2021/06/06 11:09:33;;;;;;;5.10;2.20;;;;;;;23.07;61.39;99183.48;1687328;84;20922;-69
2021/06/06 11:12:14;;;;;;;8.38;3.15;;;;;;;22.84;60.71;99183.17;1667422;85;20935;-67
2021/06/06 11:14:49;;;;;;;12.28;3.10;;;;;;;23.11;61.21;99176.77;1687619;84;21043;-66
2021/06/06 11:17:34;;;;;;;42.38;4.95;;;;;;;23.35;58.64;99169.59;1688426;84;20992;-70
2021/06/06 11:20:20;;;;;;;7.33;2.45;;;;;;;23.21;59.12;99164.53;1690512;84;20873;-70
2021/06/06 11:22:50;;;;;;;5.65;2.42;;;;;;;23.16;56.71;99164.20;1690740;84;20952;-70
2021/06/06 11:25:29;;;;;;;7.12;2.20;;;;;;;23.40;56.45;99164.69;1671849;84;20952;-70
2021/06/06 11:28:01;;;;;;;6.53;2.70;;;;;;;23.54;51.63;99160.16;1689613;84;21764;-64
2021/06/06 11:30:35;;;;;;;4.95;2.10;;;;;;;23.53;49.54;99162.69;1689695;84;21111;-69
2021/06/06 11:33:09;;;;;;;3.58;2.35;;;;;;;23.75;50.09;99161.34;1690473;84;21491;-70
2021/06/06 11:35:42;;;;;;;2.85;2.00;;;;;;;23.81;50.22;99161.30;1670097;84;20979;-73
2021/06/06 11:38:41;;;;;;;4.60;1.90;;;;;;;23.76;48.64;99157.45;1681501;85;21057;-68
2021/06/06 11:41:28;;;;;;;6.45;2.22;;;;;;;24.19;47.76;99161.28;1651518;85;20952;-71
2021/06/06 11:44:14;;;;;;;5.25;2.27;;;;;;;24.42;45.60;99149.09;1682937;84;21031;-71
2021/06/06 11:46:49;;;;;;;5.58;1.87;;;;;;;24.27;46.56;99150.70;1681666;84;23027;-67
2021/06/06 11:49:31;;;;;;;5.35;2.20;;;;;;;24.56;45.49;99148.08;1680968;84;21044;-67
2021/06/06 11:52:05;;;;;;;6.65;2.35;;;;;;;24.79;46.19;99139.98;1675814;85;21499;-69
2021/06/06 11:54:36;;;;;;;3.58;2.22;;;;;;;24.90;45.27;99151.19;1680854;84;20984;-70
2021/06/06 11:57:11;;;;;;;5.03;2.55;;;;;;;25.05;46.61;99141.88;1682738;85;20849;-70
2021/06/06 11:59:59;;;;;;;4.92;2.08;;;;;;;25.31;45.55;99146.18;1682346;84;21186;-71
2021/06/06 12:02:29;;;;;;;10.32;2.22;;;;;;;25.18;44.86;99135.11;1682336;84;21129;-68
2021/06/06 12:04:57;;;;;;;3.77;1.85;;;;;;;24.73;43.89;99137.29;1682483;85;20936;-70
2021/06/06 12:07:30;;;;;;;5.12;1.92;;;;;;;24.55;44.75;99128.67;1682092;83;20972;-69
2021/06/06 12:10:00;;;;;;;88.78;6.65;;;;;;;23.86;44.33;99134.20;1681578;84;21124;-70
2021/06/06 12:12:33;;;;;;;6.17;2.00;;;;;;;23.35;47.11;99129.89;1681478;84;21151;-66
2021/06/06 12:15:19;;;;;;;6.35;2.77;;;;;;;23.19;47.92;99127.13;1681958;84;20992;-68
2021/06/06 12:17:48;;;;;;;5.00;2.50;;;;;;;22.66;49.19;99121.64;1682797;84;20940;-70
2021/06/06 12:20:20;;;;;;;3.02;2.17;;;;;;;22.35;51.46;99119.53;1682450;84;20997;-70
2021/06/06 12:26:54;;;;;;;6.45;2.17;;;;;;;22.79;49.87;99124.59;1708934;84;21743;-72
2021/06/06 12:33:41;;;;;;;4.97;2.35;;;;;;;23.50;49.97;99114.88;1708849;84;21024;-70
2021/06/06 12:40:04;;;;;;;9.13;2.75;;;;;;;23.47;47.83;99110.11;1708932;84;20956;-71
2021/06/06 12:42:31;;;;;;;10.38;2.22;;;;;;;22.74;49.87;99113.89;1708876;84;21132;-71
2021/06/06 12:45:03;;;;;;;7.50;2.10;;;;;;;22.31;49.31;99108.47;1709085;82;21442;-69
2021/06/06 12:47:41;;;;;;;4.65;2.02;;;;;;;22.01;49.28;99116.08;1687062;82;21543;-75
2021/06/06 12:50:18;;;;;;;6.37;2.17;;;;;;;21.85;49.26;99111.84;1708438;83;21149;-70
2021/06/06 12:52:59;;;;;;;4.92;2.25;;;;;;;21.66;50.04;99106.94;1707911;83;21011;-69
2021/06/06 12:55:38;;;;;;;6.55;1.75;;;;;;;21.57;50.71;99104.86;1707539;84;21274;-68
2021/06/06 12:58:20;;;;;;;6.92;2.08;;;;;;;21.70;51.09;99105.10;1707982;83;21003;-68
2021/06/06 13:01:10;;;;;;;11.05;2.60;;;;;;;21.80;52.65;99103.86;1708680;83;20912;-72
2021/06/06 13:03:45;;;;;;;9.58;3.35;;;;;;;22.05;51.91;99096.51;1708853;83;20955;-71
2021/06/06 13:06:26;;;;;;;10.60;2.83;;;;;;;22.21;53.25;99100.73;1708578;84;21051;-69
2021/06/06 13:09:07;;;;;;;2.85;2.12;;;;;;;22.24;53.11;99102.78;1715995;83;21865;-68
2021/06/06 13:11:37;;;;;;;6.60;2.15;;;;;;;22.16;52.08;99105.04;1713671;83;21134;-70
2021/06/06 13:14:42;;;;;;;6.00;2.02;;;;;;;22.07;53.69;99098.30;1653115;86;21065;-71
2021/06/06 13:17:19;;;;;;;7.87;2.45;;;;;;;22.00;53.47;99101.63;1659226;84;20976;-72
2021/06/06 13:19:47;;;;;;;7.22;1.98;;;;;;;21.94;54.07;99098.88;1660752;86;21110;-71
2021/06/06 13:22:27;;;;;;;6.97;1.92;;;;;;;22.01;52.25;99099.11;1630367;87;21981;-70
2021/06/06 13:24:55;;;;;;;9.08;2.37;;;;;;;22.37;53.81;99096.18;1663169;85;21102;-74
2021/06/06 13:27:28;;;;;;;4.47;2.20;;;;;;;23.03;48.80;99098.34;1664622;86;20995;-70
2021/06/06 13:29:58;;;;;;;6.40;2.08;;;;;;;23.32;45.23;99093.87;1664522;86;21122;-69
2021/06/06 13:32:30;;;;;;;6.37;2.20;;;;;;;23.76;45.72;99095.80;1642152;86;21054;-70
2021/06/06 13:35:01;;;;;;;11.88;2.35;;;;;;;24.09;44.97;99093.28;1664649;86;21083;-65
2021/06/06 13:37:31;;;;;;;4.08;1.77;;;;;;;24.20;42.65;99103.91;1663829;86;21055;-71
2021/06/06 13:40:13;;;;;;;4.00;1.87;;;;;;;24.23;43.01;99096.37;1664204;86;21089;-71
2021/06/06 13:42:40;;;;;;;3.80;1.65;;;;;;;24.30;43.20;99096.53;1664434;86;21487;-71
2021/06/06 13:45:10;;;;;;;3.83;1.70;;;;;;;24.17;42.30;99089.55;1665249;86;21104;-68
2021/06/06 13:47:38;;;;;;;5.30;1.62;;;;;;;24.15;41.96;99087.73;1655498;86;21184;-64
2021/06/06 13:50:09;;;;;;;3.02;1.55;;;;;;;24.10;41.76;99085.27;1653212;86;21982;-69
2021/06/06 13:52:40;;;;;;;3.83;1.80;;;;;;;24.18;42.30;99092.53;1652694;86;20998;-71
2021/06/06 13:55:15;;;;;;;3.05;1.98;;;;;;;24.42;42.59;99091.48;1653624;86;21005;-71
2021/06/06 13:57:42;;;;;;;2.67;1.37;;;;;;;24.85;40.70;99087.55;1653366;85;20920;-71
2021/06/06 14:00:17;;;;;;;11.95;2.27;;;;;;;24.94;39.61;99096.34;1649166;86;21848;-68
2021/06/06 14:03:04;;;;;;;5.12;1.85;;;;;;;24.85;39.96;99097.16;1653867;86;21075;-67
2021/06/06 14:05:31;;;;;;;;;;;;;;;24.74;40.49;99095.55;1652737;86;21076;-71
2021/06/06 14:08:01;;;;;;;6.85;1.98;;;;;;;24.63;40.93;99102.19;1698846;83;20087;-70
2021/06/06 14:10:38;;;;;;;7.35;2.00;;;;;;;24.84;40.53;99102.41;1700204;83;20935;-67
2021/06/06 14:13:12;;;;;;;9.95;3.05;;;;;;;25.19;38.78;99101.80;1692104;83;21044;-67
2021/06/06 14:15:41;;;;;;;14.07;9.90;;;;;;;25.17;39.92;99100.58;1684662;83;21007;-70
2021/06/06 14:18:09;;;;;;;5.60;2.65;;;;;;;25.08;39.24;99093.89;1685544;83;20950;-75
2021/06/06 14:20:36;;;;;;;18.15;4.33;;;;;;;24.71;39.57;99095.69;1674535;85;21600;-67
2021/06/06 14:23:04;;;;;;;4.97;2.57;;;;;;;24.58;41.38;99093.66;1684875;85;21029;-71
2021/06/06 14:25:35;;;;;;;6.37;2.52;;;;;;;24.47;42.40;99094.56;1685286;84;21454;-71
2021/06/06 14:28:03;;;;;;;9.58;2.20;;;;;;;24.78;40.88;99096.42;1684524;84;20982;-72
2021/06/06 14:30:33;;;;;;;7.95;2.02;;;;;;;24.91;40.95;99090.21;1685670;85;21006;-70
2021/06/06 14:33:02;;;;;;;4.20;1.95;;;;;;;24.89;41.25;99091.97;1685366;85;21463;-71
2021/06/06 14:35:29;;;;;;;7.75;1.77;;;;;;;25.07;40.39;99086.83;1685549;84;21006;-71
2021/06/06 14:37:56;;;;;;;11.03;2.17;;;;;;;25.16;40.28;99087.41;1684938;85;21152;-66
2021/06/06 14:40:28;;;;;;;6.35;2.37;;;;;;;25.14;39.44;99084.22;1685487;84;20931;-67
2021/06/06 14:42:55;;;;;;;7.90;3.02;;;;;;;25.20;39.47;99083.38;1685194;84;20930;-69
2021/06/06 14:45:28;;;;;;;;;;;;;;;25.17;38.93;99081.36;1687757;85;21063;-71
2021/06/06 14:47:55;;;;;;;3.52;2.27;;;;;;;25.11;39.52;99081.39;1675303;85;20149;-72
2021/06/06 14:50:23;;;;;;;8.80;2.02;;;;;;;25.29;39.80;99074.33;1684936;84;22000;-72
2021/06/06 14:52:57;;;;;;;7.67;2.27;;;;;;;25.32;38.27;99076.92;1684982;85;21014;-69
2021/06/06 14:55:26;;;;;;;10.13;2.83;;;;;;;24.98;38.64;99080.17;1685231;84;21449;-70
2021/06/06 14:57:58;;;;;;;8.25;2.85;;;;;;;24.75;40.29;99077.36;1685363;85;20961;-70
2021/06/06 15:00:33;;;;;;;6.22;2.08;;;;;;;24.60;39.51;99076.27;1685352;83;20977;-69
2021/06/06 15:03:00;;;;;;;8.88;3.12;;;;;;;24.85;39.57;99068.34;1685287;85;21109;-68
2021/06/06 15:05:27;;;;;;;4.47;2.33;;;;;;;25.10;39.36;99072.36;1684009;84;21002;-71
2021/06/06 15:07:54;;;;;;;7.03;2.60;;;;;;;25.14;39.51;99079.31;1684912;84;21017;-71